Time;durP1;ratioP1;P1;durP2;ratioP2;P2;SDS_P1;SDS_P2;PMS_P1;PMS_P2;Temp;Humidity;BMP_temperature;BMP_pressure;BME280_temperature;BME280_humidity;BME280_pressure;Samples;Min_cycle;Max_cycle;Signal;HPM_P1;HPM_P2
2021/04/07 00:01:41;;;;;;;1.52;1.52;;;;;;;5.74;69.10;91948.69;5087447;28;20059;-45
2021/04/07 00:04:06;;;;;;;2.03;1.10;;;;;;;5.82;68.60;91954.88;5087475;28;20400;-45
2021/04/07 00:06:34;;;;;;;2.53;2.33;;;;;;;5.80;68.04;91943.75;5088368;28;20530;-44
2021/04/07 00:09:03;;;;;;;0.90;0.90;;;;;;;5.93;66.37;91927.09;5088299;28;20032;-44
2021/04/07 00:11:29;;;;;;;1.38;1.08;;;;;;;6.01;66.08;91938.72;5086970;28;20058;-45
2021/04/07 00:13:55;;;;;;;6.57;1.67;;;;;;;6.11;65.51;91926.63;5080144;28;20029;-45
2021/04/07 00:16:21;;;;;;;0.50;0.50;;;;;;;6.11;64.83;91921.13;5089598;28;20084;-45
2021/04/07 00:18:47;;;;;;;0.38;0.38;;;;;;;6.06;65.37;91913.16;5086390;28;20032;-46
2021/04/07 00:21:12;;;;;;;0.75;0.75;;;;;;;6.08;65.20;91921.53;5088365;28;20027;-46
2021/04/07 00:23:38;;;;;;;4.22;2.40;;;;;;;6.10;66.22;91916.22;5088140;28;20019;-46
2021/04/07 00:26:03;;;;;;;1.83;1.73;;;;;;;5.90;67.27;91917.25;5088250;28;20020;-46
2021/04/07 00:28:29;;;;;;;3.30;1.48;;;;;;;5.88;67.49;91917.06;5088511;28;20019;-44
2021/04/07 00:30:54;;;;;;;1.95;1.50;;;;;;;5.94;67.62;91917.59;5088340;28;20027;-45
2021/04/07 00:33:19;;;;;;;1.50;1.40;;;;;;;5.92;67.63;91925.63;5088287;28;20030;-48
2021/04/07 00:35:45;;;;;;;2.05;1.85;;;;;;;6.07;67.08;91936.50;5088970;28;20043;-47
2021/04/07 00:38:11;;;;;;;0.57;0.57;;;;;;;6.13;66.43;91939.06;5088777;28;20454;-47
2021/04/07 00:40:37;;;;;;;0.65;0.65;;;;;;;6.13;64.76;91937.75;5088541;28;20022;-48
2021/04/07 00:43:03;;;;;;;0.98;0.95;;;;;;;5.98;64.70;91924.13;5087922;28;20012;-47
2021/04/07 00:45:28;;;;;;;1.95;1.85;;;;;;;5.89;65.82;91945.94;5088864;28;20069;-45
2021/04/07 00:47:55;;;;;;;0.55;0.55;;;;;;;5.73;66.89;91950.72;5088975;28;20026;-45
2021/04/07 00:50:23;;;;;;;2.08;1.38;;;;;;;5.53;67.75;91938.00;5088475;28;20031;-47
2021/04/07 00:52:49;;;;;;;1.35;1.25;;;;;;;5.63;67.86;91943.63;5085157;28;20028;-45
2021/04/07 00:55:16;;;;;;;1.10;1.10;;;;;;;5.53;68.00;91948.94;5088737;28;20036;-45
2021/04/07 00:57:43;;;;;;;0.80;0.80;;;;;;;5.44;69.10;91944.03;5086226;28;20024;-46
2021/04/07 01:00:10;;;;;;;0.77;0.60;;;;;;;5.35;70.39;91944.59;5078668;28;20477;-45
2021/04/07 01:02:35;;;;;;;1.85;1.65;;;;;;;5.25;69.69;91951.94;5088085;28;20133;-45
2021/04/07 01:05:00;;;;;;;0.93;0.93;;;;;;;5.24;70.12;91950.50;5088298;28;20115;-46
2021/04/07 01:07:26;;;;;;;1.02;1.02;;;;;;;5.11;70.07;91943.19;5079035;28;20534;-48
2021/04/07 01:09:51;;;;;;;0.95;0.90;;;;;;;5.19;69.99;91940.47;5078796;28;20111;-45
2021/04/07 01:12:17;;;;;;;3.22;1.25;;;;;;;5.36;69.16;91937.88;5088138;28;20027;-46
2021/04/07 01:14:42;;;;;;;0.65;0.65;;;;;;;5.37;68.77;91926.34;5088085;28;20024;-48
2021/04/07 01:17:08;;;;;;;0.90;0.90;;;;;;;5.53;67.62;91929.78;5088491;28;20468;-48
2021/04/07 01:19:35;;;;;;;1.23;1.10;;;;;;;5.67;66.45;91941.25;5088313;28;20024;-46
2021/04/07 01:22:01;;;;;;;0.85;0.85;;;;;;;5.72;67.24;91937.56;5088596;28;20027;-45
2021/04/07 01:24:26;;;;;;;1.05;0.95;;;;;;;5.72;67.73;91932.06;5077101;28;20409;-47
2021/04/07 01:26:52;;;;;;;1.40;1.38;;;;;;;5.77;67.99;91942.84;5075837;28;20028;-47
2021/04/07 01:29:18;;;;;;;1.52;1.38;;;;;;;5.72;68.13;91932.81;5088270;28;20408;-47
2021/04/07 01:31:51;;;;;;;1.02;1.02;;;;;;;5.84;68.04;91930.41;5088518;28;20024;-46
2021/04/07 01:34:26;;;;;;;3.00;2.42;;;;;;;5.99;67.19;91922.88;5087519;28;20038;-47
2021/04/07 01:36:53;;;;;;;1.40;1.30;;;;;;;6.00;66.66;91921.56;5087784;28;20035;-48
2021/04/07 01:39:20;;;;;;;0.50;0.50;;;;;;;5.98;66.42;91917.91;5090464;28;20584;-45
2021/04/07 01:41:45;;;;;;;1.77;1.25;;;;;;;6.02;66.00;91913.50;5091863;28;20027;-47
2021/04/07 01:44:12;;;;;;;0.85;0.85;;;;;;;5.99;66.02;91914.66;5091946;28;20538;-47
2021/04/07 01:46:38;;;;;;;0.60;0.60;;;;;;;5.95;66.22;91899.88;5082020;28;20092;-45
2021/04/07 01:49:06;;;;;;;1.20;1.15;;;;;;;6.00;66.18;91904.41;5088984;28;20329;-46
2021/04/07 01:51:32;;;;;;;0.77;0.77;;;;;;;6.05;66.46;91897.97;5091666;28;20553;-45
2021/04/07 01:54:02;;;;;;;1.95;1.55;;;;;;;6.09;66.60;91898.31;5091926;28;20023;-44
2021/04/07 01:56:28;;;;;;;1.08;1.08;;;;;;;6.17;66.91;91901.03;5091515;28;20052;-47
2021/04/07 01:59:11;;;;;;;3.50;1.10;;;;;;;6.20;66.65;91888.94;5091473;28;20184;-46
2021/04/07 02:01:37;;;;;;;1.15;1.08;;;;;;;5.93;67.42;91891.50;5087093;28;20102;-48
2021/04/07 02:04:03;;;;;;;1.05;1.05;;;;;;;5.88;67.70;91886.94;5090492;28;20177;-47
2021/04/07 02:06:28;;;;;;;1.65;1.55;;;;;;;5.99;66.78;91881.78;5090711;28;20024;-45
2021/04/07 02:08:54;;;;;;;1.85;1.75;;;;;;;5.81;67.08;91876.72;5091540;28;20027;-46
2021/04/07 02:11:20;;;;;;;0.40;0.40;;;;;;;5.93;67.13;91886.00;5090791;28;20031;-47
2021/04/07 02:13:45;;;;;;;1.00;0.98;;;;;;;6.01;67.28;91889.44;5091632;28;20047;-47
2021/04/07 02:16:12;;;;;;;0.65;0.65;;;;;;;5.69;67.95;91884.66;5091341;28;20484;-44
2021/04/07 02:18:38;;;;;;;3.53;2.53;;;;;;;5.40;68.84;91878.00;5089874;28;20081;-45
2021/04/07 02:21:04;;;;;;;0.40;0.40;;;;;;;5.24;69.44;91865.69;5091126;28;20012;-45
2021/04/07 02:23:29;;;;;;;1.25;1.23;;;;;;;5.38;68.92;91878.56;5090802;28;20020;-44
2021/04/07 02:25:55;;;;;;;2.20;2.00;;;;;;;5.44;69.21;91889.31;5091218;28;20027;-44
2021/04/07 02:28:20;;;;;;;1.73;1.63;;;;;;;5.61;69.31;91880.50;5090698;28;20483;-44
2021/04/07 02:30:45;;;;;;;0.30;0.30;;;;;;;5.27;70.09;91870.75;5090654;28;20028;-45
2021/04/07 02:33:11;;;;;;;0.98;0.98;;;;;;;5.33;69.86;91870.53;5090622;28;20039;-45
2021/04/07 02:35:36;;;;;;;0.75;0.60;;;;;;;5.43;69.52;91873.44;5090934;28;20036;-45
2021/04/07 02:38:02;;;;;;;1.08;0.98;;;;;;;5.51;69.40;91874.88;5083290;28;20027;-46
2021/04/07 02:40:27;;;;;;;0.63;0.35;;;;;;;5.57;68.76;91866.44;5090577;28;20073;-46
2021/04/07 02:42:52;;;;;;;3.63;2.50;;;;;;;5.59;68.46;91874.84;5092142;28;20032;-44
2021/04/07 02:45:18;;;;;;;0.75;0.75;;;;;;;5.68;68.49;91868.75;5091793;28;20024;-45
2021/04/07 02:47:43;;;;;;;0.93;0.93;;;;;;;5.92;67.67;91877.06;5091875;28;20024;-45
2021/04/07 02:50:09;;;;;;;1.10;0.95;;;;;;;5.84;67.99;91875.66;5091509;28;20488;-44
2021/04/07 02:52:35;;;;;;;0.63;0.63;;;;;;;5.82;67.52;91889.88;5091722;28;20024;-46
2021/04/07 02:55:00;;;;;;;0.47;0.47;;;;;;;5.97;67.27;91884.34;5091471;28;20118;-46
2021/04/07 02:57:25;;;;;;;0.60;0.60;;;;;;;6.00;67.10;91891.44;5092012;28;20023;-46
2021/04/07 02:59:51;;;;;;;1.30;1.27;;;;;;;5.97;68.08;91894.56;5090657;28;20058;-46
2021/04/07 03:02:16;;;;;;;0.90;0.90;;;;;;;5.81;69.40;91899.38;5070973;28;20056;-50
2021/04/07 03:04:41;;;;;;;0.80;0.80;;;;;;;5.73;69.50;91904.16;5071192;28;20103;-45
2021/04/07 03:07:07;;;;;;;0.70;0.52;;;;;;;5.61;69.60;91894.19;5072618;28;20032;-46
2021/04/07 03:09:32;;;;;;;1.52;1.48;;;;;;;5.38;70.23;91886.03;5091204;28;20043;-44
2021/04/07 03:11:58;;;;;;;1.35;1.35;;;;;;;5.22;70.08;91885.38;5091161;28;20034;-45
2021/04/07 03:14:23;;;;;;;0.80;0.80;;;;;;;5.21;70.46;91881.19;5091469;28;20024;-46
2021/04/07 03:16:49;;;;;;;9.68;1.90;;;;;;;5.06;70.78;91875.75;5091173;28;20609;-45
2021/04/07 03:19:14;;;;;;;0.85;0.85;;;;;;;5.05;70.97;91885.22;5089905;28;20031;-47
2021/04/07 03:21:39;;;;;;;0.52;0.52;;;;;;;5.22;71.28;91899.03;5090967;28;20028;-47
2021/04/07 03:24:05;;;;;;;0.30;0.30;;;;;;;5.22;70.16;91904.50;5091289;28;20093;-45
2021/04/07 03:26:31;;;;;;;0.77;0.77;;;;;;;5.51;68.40;91926.13;5090977;28;20085;-47
2021/04/07 03:28:56;;;;;;;1.80;1.70;;;;;;;5.42;69.53;91938.38;5091010;28;20073;-47
2021/04/07 03:31:22;;;;;;;0.77;0.77;;;;;;;5.39;70.19;91953.91;5090987;28;20507;-45
2021/04/07 03:33:47;;;;;;;0.65;0.63;;;;;;;5.27;67.63;91958.31;5089529;28;20480;-44
2021/04/07 03:36:13;;;;;;;0.77;0.77;;;;;;;5.08;68.42;91984.63;5090989;28;20019;-46
2021/04/07 03:38:38;;;;;;;0.55;0.55;;;;;;;5.05;65.91;92000.09;5090720;28;20032;-45
2021/04/07 03:41:04;;;;;;;0.70;0.70;;;;;;;4.94;66.49;92003.22;5090741;28;20031;-45
2021/04/07 03:43:29;;;;;;;1.98;1.88;;;;;;;4.89;67.73;92019.81;5090572;28;20128;-45
2021/04/07 03:45:56;;;;;;;1.42;1.33;;;;;;;4.91;66.18;92036.41;5090603;28;20024;-45
2021/04/07 03:48:24;;;;;;;1.35;1.25;;;;;;;4.84;65.53;92028.91;5090817;28;20092;-45
2021/04/07 03:50:50;;;;;;;3.20;1.35;;;;;;;4.60;66.57;92035.63;5090818;28;20031;-46
2021/04/07 03:53:16;;;;;;;1.27;1.23;;;;;;;4.62;66.73;92038.56;5090440;28;20416;-45
2021/04/07 03:55:42;;;;;;;3.28;0.60;;;;;;;4.73;65.74;92040.19;5090742;28;20114;-44
2021/04/07 03:58:08;;;;;;;1.13;1.02;;;;;;;4.67;67.25;92058.78;5089114;28;20238;-44
2021/04/07 04:00:33;;;;;;;1.15;1.15;;;;;;;4.50;67.10;92065.47;5083452;28;20536;-45
2021/04/07 04:02:59;;;;;;;1.48;1.38;;;;;;;4.58;66.67;92060.78;5069445;28;20048;-45
2021/04/07 04:05:25;;;;;;;0.50;0.50;;;;;;;4.50;67.80;92065.47;5070272;28;20409;-44
2021/04/07 04:07:50;;;;;;;0.52;0.52;;;;;;;4.55;67.88;92067.31;5069947;28;20067;-44
2021/04/07 04:10:16;;;;;;;0.98;0.98;;;;;;;4.53;68.22;92061.69;5070201;28;20756;-46
2021/04/07 04:12:42;;;;;;;0.68;0.68;;;;;;;4.42;68.67;92055.81;5070155;28;20545;-45
2021/04/07 04:15:09;;;;;;;1.52;1.48;;;;;;;4.38;69.78;92080.03;5070143;28;20025;-45
2021/04/07 04:17:42;;;;;;;0.80;0.80;;;;;;;4.53;68.53;92071.88;5069734;28;20036;-45
2021/04/07 04:20:11;;;;;;;2.47;2.28;;;;;;;4.52;69.76;92101.22;5070203;28;20025;-45
2021/04/07 04:22:37;;;;;;;0.95;0.95;;;;;;;4.47;69.77;92104.09;5069745;28;20500;-46
2021/04/07 04:25:04;;;;;;;0.43;0.43;;;;;;;4.48;70.12;92121.97;5069750;28;20056;-45
2021/04/07 04:27:29;;;;;;;1.08;1.05;;;;;;;4.53;69.50;92110.88;5069915;28;20060;-46
2021/04/07 04:29:55;;;;;;;1.23;1.20;;;;;;;4.73;68.84;92119.47;5069948;28;20114;-45
2021/04/07 04:32:20;;;;;;;0.93;0.93;;;;;;;4.56;69.14;92125.47;5069508;28;20063;-46
2021/04/07 04:34:46;;;;;;;2.03;1.92;;;;;;;4.56;68.57;92139.88;5069769;28;20074;-47
2021/04/07 04:37:11;;;;;;;1.60;1.50;;;;;;;4.34;68.35;92143.22;5069642;28;20518;-47
2021/04/07 04:39:37;;;;;;;0.55;0.55;;;;;;;4.34;68.29;92148.69;5087658;28;20035;-47
2021/04/07 04:42:03;;;;;;;2.05;1.92;;;;;;;4.20;68.60;92155.53;5089655;28;20060;-45
2021/04/07 04:44:28;;;;;;;0.73;0.73;;;;;;;3.97;70.13;92164.88;5089909;28;20020;-46
2021/04/07 04:46:54;;;;;;;0.88;0.88;;;;;;;4.07;70.51;92176.78;5089729;28;20026;-46
2021/04/07 04:49:19;;;;;;;0.45;0.45;;;;;;;4.13;69.27;92169.16;5089946;28;20106;-44
2021/04/07 04:51:45;;;;;;;0.60;0.60;;;;;;;4.07;69.91;92179.53;5089674;28;20081;-44
2021/04/07 04:54:10;;;;;;;0.63;0.63;;;;;;;4.04;68.64;92172.38;5089622;28;20484;-45
2021/04/07 04:56:39;;;;;;;0.40;0.40;;;;;;;4.16;68.07;92173.56;5089900;28;20080;-45
2021/04/07 04:59:04;;;;;;;0.50;0.50;;;;;;;4.10;68.16;92170.97;5089552;28;20028;-45
2021/04/07 05:01:30;;;;;;;0.40;0.40;;;;;;;4.01;69.09;92176.19;5074914;28;20020;-45
2021/04/07 05:03:55;;;;;;;1.60;1.50;;;;;;;4.15;67.72;92191.22;5069617;28;20639;-44
2021/04/07 05:06:21;;;;;;;1.80;1.70;;;;;;;3.96;68.53;92201.66;5069533;28;20032;-43
2021/04/07 05:08:47;;;;;;;0.60;0.60;;;;;;;3.66;69.72;92181.06;5069459;28;20041;-43
2021/04/07 05:11:12;;;;;;;4.43;1.08;;;;;;;3.75;68.99;92188.03;5069697;28;20098;-44
2021/04/07 05:13:38;;;;;;;0.50;0.50;;;;;;;3.71;69.01;92190.38;5070807;28;20503;-44
2021/04/07 05:16:03;;;;;;;0.75;0.75;;;;;;;3.77;68.55;92196.41;5078372;28;20032;-46
2021/04/07 05:18:29;;;;;;;0.40;0.40;;;;;;;3.65;68.98;92209.63;5073395;28;20035;-44
2021/04/07 05:20:54;;;;;;;0.95;0.70;;;;;;;3.74;68.52;92208.41;5086767;28;20027;-45
2021/04/07 05:23:20;;;;;;;1.02;0.95;;;;;;;3.68;69.04;92205.09;5073444;28;20021;-44
2021/04/07 05:25:45;;;;;;;0.40;0.40;;;;;;;3.82;68.42;92211.94;5074871;28;20032;-46
2021/04/07 05:28:10;;;;;;;0.35;0.35;;;;;;;3.64;69.50;92221.81;5092473;28;20428;-45
2021/04/07 05:33:23;;;;;;;0.80;0.80;;;;;;;3.57;67.85;92208.81;5090945;28;20089;-50
2021/04/07 05:35:49;;;;;;;;;;;;;;;3.49;68.68;92196.38;5092860;28;20028;-47
2021/04/07 05:38:17;;;;;;;0.50;0.50;;;;;;;3.28;69.04;92206.56;5092690;28;19915;-46
2021/04/07 05:40:43;;;;;;;0.55;0.55;;;;;;;3.36;69.38;92216.28;5092887;28;20064;-45
2021/04/07 05:43:08;;;;;;;0.73;0.73;;;;;;;3.53;69.38;92213.16;5093256;28;20542;-45
2021/04/07 05:45:38;;;;;;;0.57;0.57;;;;;;;3.58;68.95;92223.94;5092233;28;20168;-46
2021/04/07 05:48:04;;;;;;;0.30;0.30;;;;;;;3.78;68.93;92219.72;5091032;28;20039;-46
2021/04/07 05:50:30;;;;;;;0.93;0.93;;;;;;;3.73;69.09;92209.66;5090879;28;20035;-46
2021/04/07 05:52:55;;;;;;;0.50;0.50;;;;;;;3.63;68.60;92217.63;5090630;28;20040;-47
2021/04/07 05:55:21;;;;;;;1.05;1.05;;;;;;;3.63;69.32;92208.69;5090667;28;20031;-45
2021/04/07 05:57:56;;;;;;;0.40;0.40;;;;;;;3.77;68.19;92188.22;5089871;28;20513;-46
2021/04/07 06:00:23;;;;;;;1.02;0.93;;;;;;;3.83;66.47;92191.56;5085442;28;20032;-45
2021/04/07 06:02:48;;;;;;;0.30;0.30;;;;;;;3.29;68.22;92216.94;5069928;28;20048;-45
2021/04/07 06:05:14;;;;;;;0.30;0.30;;;;;;;3.49;70.07;92240.78;5070139;28;20036;-44
2021/04/07 06:07:39;;;;;;;1.23;0.50;;;;;;;3.33;70.94;92260.28;5070216;28;20036;-45
2021/04/07 06:10:05;;;;;;;1.05;1.05;;;;;;;3.45;69.50;92264.19;5081291;28;20039;-44
2021/04/07 06:12:31;;;;;;;0.45;0.45;;;;;;;3.33;69.65;92269.19;5088808;28;20050;-47
2021/04/07 06:14:56;;;;;;;0.30;0.30;;;;;;;3.19;70.53;92256.84;5073437;28;20028;-47
2021/04/07 06:17:22;;;;;;;0.40;0.40;;;;;;;3.25;69.96;92254.00;5070283;28;20032;-47
2021/04/07 06:19:47;;;;;;;0.45;0.45;;;;;;;3.32;70.32;92280.63;5070466;28;20043;-47
2021/04/07 06:22:12;;;;;;;1.17;0.80;;;;;;;3.43;68.74;92281.09;5080053;28;20028;-47
2021/04/07 06:24:38;;;;;;;0.45;0.45;;;;;;;3.34;68.95;92213.34;5089309;28;20027;-50
2021/04/07 06:27:03;;;;;;;0.35;0.35;;;;;;;3.35;68.29;92189.53;5089539;28;20012;-48
2021/04/07 06:29:28;;;;;;;0.30;0.30;;;;;;;3.16;69.88;92211.56;5089698;28;20408;-46
2021/04/07 06:31:54;;;;;;;1.33;1.33;;;;;;;3.39;69.91;92247.22;5089353;28;20024;-46
2021/04/07 06:34:19;;;;;;;0.57;0.57;;;;;;;3.52;69.60;92269.00;5089787;28;20016;-48
2021/04/07 06:36:45;;;;;;;3.28;2.15;;;;;;;3.38;70.11;92284.69;5089910;28;20088;-49
2021/04/07 06:39:10;;;;;;;0.98;0.98;;;;;;;3.43;69.48;92283.84;5080743;28;20027;-48
2021/04/07 06:41:35;;;;;;;0.65;0.65;;;;;;;3.33;69.71;92301.94;5089890;28;20524;-47
2021/04/07 06:44:01;;;;;;;0.55;0.55;;;;;;;3.31;69.41;92309.91;5080068;28;20141;-49
2021/04/07 06:46:27;;;;;;;1.88;1.73;;;;;;;3.31;68.83;92309.91;5075823;28;20431;-48
2021/04/07 06:48:53;;;;;;;0.35;0.35;;;;;;;3.06;69.18;92320.34;5086513;28;20668;-47
2021/04/07 06:51:21;;;;;;;0.30;0.30;;;;;;;3.02;68.64;92327.38;5086424;28;20058;-47
2021/04/07 06:53:50;;;;;;;0.60;0.60;;;;;;;3.00;69.35;92325.19;5086445;28;20024;-48
2021/04/07 06:56:17;;;;;;;0.60;0.60;;;;;;;2.96;70.04;92332.22;5086052;28;20035;-48
2021/04/07 06:58:44;;;;;;;1.20;1.20;;;;;;;2.79;70.64;92326.38;5086166;28;20659;-49
2021/04/07 07:01:09;;;;;;;0.98;0.98;;;;;;;2.94;70.44;92312.94;5086934;28;20040;-47
2021/04/07 07:03:34;;;;;;;1.52;1.42;;;;;;;3.22;68.33;92324.00;5088105;28;20431;-47
2021/04/07 07:06:00;;;;;;;0.85;0.85;;;;;;;3.24;67.77;92323.44;5086219;28;20027;-48
2021/04/07 07:08:26;;;;;;;0.93;0.90;;;;;;;3.44;67.26;92355.50;5089163;28;20043;-49
2021/04/07 07:10:52;;;;;;;0.88;0.88;;;;;;;3.29;68.02;92364.22;5079032;28;20039;-52
2021/04/07 07:13:25;;;;;;;1.63;1.52;;;;;;;3.33;68.71;92367.41;5088467;28;20085;-48
2021/04/07 07:15:52;;;;;;;0.30;0.30;;;;;;;3.43;67.81;92359.50;5089101;28;20071;-48
2021/04/07 07:18:25;;;;;;;0.90;0.90;;;;;;;3.26;68.17;92342.75;5089133;28;20066;-46
2021/04/07 07:20:51;;;;;;;0.70;0.70;;;;;;;3.03;69.82;92347.94;5088589;28;20032;-47
2021/04/07 07:23:24;;;;;;;0.70;0.70;;;;;;;3.21;70.19;92379.03;5088844;28;20065;-50
2021/04/07 07:26:01;;;;;;;1.85;1.75;;;;;;;3.19;69.06;92393.22;5089019;28;20028;-46
2021/04/07 07:28:28;;;;;;;2.05;1.60;;;;;;;3.24;68.79;92388.91;5089076;28;20043;-48
2021/04/07 07:30:54;;;;;;;0.50;0.50;;;;;;;3.35;68.72;92388.69;5087755;28;20036;-48
2021/04/07 07:33:21;;;;;;;0.70;0.70;;;;;;;3.33;68.92;92381.03;5089009;28;20070;-47
2021/04/07 07:35:49;;;;;;;1.25;1.25;;;;;;;3.36;68.48;92390.88;5088169;28;20488;-48
2021/04/07 07:38:25;;;;;;;0.50;0.50;;;;;;;3.37;68.25;92375.25;5089059;28;20506;-48
2021/04/07 07:41:04;;;;;;;0.73;0.73;;;;;;;3.75;68.17;92392.75;5088675;28;20051;-48
2021/04/07 07:43:29;;;;;;;0.70;0.68;;;;;;;3.64;67.35;92387.53;5088583;28;20024;-48
2021/04/07 07:45:55;;;;;;;1.63;1.52;;;;;;;3.57;68.85;92399.13;5088511;28;20043;-48
2021/04/07 07:48:22;;;;;;;0.93;0.93;;;;;;;3.84;68.21;92417.63;5088781;28;20055;-52
2021/04/07 07:50:48;;;;;;;0.50;0.50;;;;;;;4.00;66.03;92423.25;5088657;28;20028;-47
2021/04/07 07:53:20;;;;;;;0.43;0.43;;;;;;;3.90;65.12;92428.41;5088683;28;20120;-49
2021/04/07 07:55:49;;;;;;;1.13;1.13;;;;;;;3.75;65.39;92418.06;5088803;28;20036;-49
2021/04/07 07:58:14;;;;;;;0.57;0.57;;;;;;;3.60;67.09;92414.44;5088012;28;20465;-47
2021/04/07 08:00:40;;;;;;;0.30;0.30;;;;;;;3.53;67.93;92415.09;5086634;28;20106;-47
2021/04/07 08:03:10;;;;;;;0.73;0.70;;;;;;;3.78;66.42;92421.75;5088262;28;20530;-47
2021/04/07 08:05:36;;;;;;;2.95;1.08;;;;;;;3.82;64.29;92424.88;5088580;28;20032;-47
2021/04/07 08:08:03;;;;;;;3.40;0.77;;;;;;;3.95;63.43;92419.38;5088243;28;20081;-48
2021/04/07 08:10:29;;;;;;;0.40;0.40;;;;;;;3.81;65.13;92424.13;5088193;28;20385;-47
2021/04/07 08:12:56;;;;;;;0.22;0.22;;;;;;;3.85;65.97;92418.38;5086787;28;20024;-47
2021/04/07 08:15:22;;;;;;;0.68;0.68;;;;;;;3.83;64.21;92407.25;5080735;28;20027;-47
2021/04/07 08:17:47;;;;;;;0.30;0.30;;;;;;;3.71;65.36;92420.41;5072639;28;20074;-47
2021/04/07 08:20:13;;;;;;;0.30;0.30;;;;;;;4.09;66.10;92420.06;5087507;28;20114;-47
2021/04/07 08:22:38;;;;;;;0.50;0.50;;;;;;;4.23;65.12;92416.00;5077848;28;20099;-47
2021/04/07 08:25:05;;;;;;;0.40;0.35;;;;;;;4.51;64.00;92437.91;5083770;28;20032;-46
2021/04/07 08:27:32;;;;;;;1.05;1.05;;;;;;;4.63;65.42;92452.06;5087557;28;20502;-48
2021/04/07 08:29:58;;;;;;;0.55;0.50;;;;;;;4.72;62.61;92430.44;5087637;28;20023;-47
2021/04/07 08:32:24;;;;;;;1.52;0.75;;;;;;;4.84;63.54;92448.03;5077915;28;20016;-47
2021/04/07 08:34:50;;;;;;;0.70;0.65;;;;;;;4.81;62.70;92459.31;5087379;28;20020;-48
2021/04/07 08:37:25;;;;;;;0.73;0.73;;;;;;;4.78;62.61;92455.66;5079069;28;20039;-48
2021/04/07 08:39:51;;;;;;;0.25;0.25;;;;;;;4.70;62.14;92441.16;5083485;28;20185;-49
2021/04/07 08:42:17;;;;;;;0.95;0.95;;;;;;;4.76;60.25;92428.13;5087295;28;20640;-47
2021/04/07 08:44:47;;;;;;;0.50;0.28;;;;;;;4.53;61.90;92438.84;5087272;28;20027;-48
2021/04/07 08:47:25;;;;;;;0.95;0.95;;;;;;;4.60;63.27;92438.19;5067108;28;20036;-48
2021/04/07 08:50:06;;;;;;;5.28;2.22;;;;;;;4.68;63.40;92451.91;5067096;28;20032;-46
2021/04/07 08:52:47;;;;;;;0.30;0.30;;;;;;;4.87;64.09;92465.38;5084557;28;20119;-49
2021/04/07 08:55:33;;;;;;;0.47;0.47;;;;;;;4.91;64.23;92469.25;5084841;28;20056;-47
2021/04/07 08:58:05;;;;;;;0.50;0.50;;;;;;;5.06;62.26;92465.88;5085111;28;20047;-48
2021/04/07 09:00:33;;;;;;;0.65;0.63;;;;;;;5.09;62.20;92462.78;5081792;28;20051;-51
2021/04/07 09:03:11;;;;;;;2.75;1.40;;;;;;;5.02;63.50;92474.44;5076781;28;20067;-49
2021/04/07 09:05:45;;;;;;;1.17;1.13;;;;;;;5.14;63.47;92470.13;5085194;28;20114;-50
2021/04/07 09:08:29;;;;;;;1.30;1.27;;;;;;;5.26;61.65;92454.88;5084185;28;20034;-49
2021/04/07 09:10:56;;;;;;;1.05;1.05;;;;;;;5.05;62.59;92446.00;5084697;28;20052;-51
2021/04/07 09:13:33;;;;;;;0.20;0.20;;;;;;;5.12;62.47;92448.03;5087146;28;20035;-46
2021/04/07 09:16:05;;;;;;;0.70;0.70;;;;;;;4.98;62.88;92454.16;5087825;28;20051;-46
2021/04/07 09:18:37;;;;;;;0.20;0.20;;;;;;;4.87;63.28;92457.91;5086718;28;20044;-48
2021/04/07 09:21:04;;;;;;;0.35;0.35;;;;;;;4.77;62.26;92486.97;5066943;28;20097;-46
2021/04/07 09:23:31;;;;;;;0.50;0.50;;;;;;;4.78;63.15;92499.41;5067055;28;20031;-45
2021/04/07 09:26:11;;;;;;;1.40;0.60;;;;;;;4.84;62.90;92500.00;5066904;28;20560;-45
2021/04/07 09:28:49;;;;;;;0.55;0.52;;;;;;;4.51;62.63;92495.31;5067314;28;20044;-46
2021/04/07 09:31:34;;;;;;;0.40;0.40;;;;;;;4.57;62.79;92510.31;5067094;28;20028;-46
2021/04/07 09:34:00;;;;;;;0.70;0.70;;;;;;;4.51;63.34;92525.38;5066746;28;20039;-47
2021/04/07 09:36:30;;;;;;;0.82;0.82;;;;;;;4.37;63.62;92521.25;5084427;28;20032;-47
2021/04/07 09:38:57;;;;;;;0.38;0.38;;;;;;;4.22;63.09;92521.09;5079796;28;20601;-46
2021/04/07 09:41:27;;;;;;;0.88;0.88;;;;;;;4.21;63.46;92517.63;5086090;28;20109;-46
2021/04/07 09:43:53;;;;;;;1.73;1.63;;;;;;;4.24;63.05;92505.63;5086145;28;20546;-45
2021/04/07 09:46:19;;;;;;;1.35;0.98;;;;;;;4.07;63.94;92513.44;5086963;28;20024;-48
2021/04/07 09:48:58;;;;;;;0.80;0.80;;;;;;;4.09;64.80;92491.06;5087240;28;20016;-48
2021/04/07 09:51:30;;;;;;;0.65;0.65;;;;;;;4.49;64.50;92492.38;5086598;28;20028;-47
2021/04/07 09:54:17;;;;;;;0.55;0.55;;;;;;;4.73;63.21;92505.72;5086962;28;20024;-46
2021/04/07 09:56:56;;;;;;;1.08;1.05;;;;;;;4.73;63.16;92510.47;5085635;28;20066;-46
2021/04/07 09:59:41;;;;;;;;;;;;;;;4.69;64.53;92519.00;5083993;28;20797;-48
2021/04/07 10:02:08;;;;;;;0.40;0.40;;;;;;;4.69;62.95;92521.00;5086732;28;19924;-48
2021/04/07 10:04:44;;;;;;;0.35;0.35;;;;;;;4.67;62.89;92521.53;5089162;28;20038;-47
2021/04/07 10:07:14;;;;;;;0.40;0.40;;;;;;;4.72;62.36;92526.13;5082398;28;20658;-48
2021/04/07 10:09:41;;;;;;;0.50;0.50;;;;;;;4.80;63.00;92534.41;5069955;28;20113;-48
2021/04/07 10:12:08;;;;;;;0.40;0.40;;;;;;;4.58;62.56;92538.41;5068977;28;20691;-49
2021/04/07 10:14:33;;;;;;;1.25;1.15;;;;;;;4.44;62.54;92537.00;5070227;28;20408;-47
2021/04/07 10:17:11;;;;;;;1.00;0.90;;;;;;;4.47;62.76;92539.38;5087978;28;20024;-46
2021/04/07 10:19:37;;;;;;;2.28;1.27;;;;;;;4.41;62.94;92544.25;5089941;28;20028;-50
2021/04/07 10:22:02;;;;;;;0.45;0.45;;;;;;;4.36;62.69;92547.84;5090031;28;20031;-47
2021/04/07 10:24:29;;;;;;;1.85;1.75;;;;;;;4.28;63.60;92547.03;5090292;28;20061;-48
2021/04/07 10:26:55;;;;;;;0.50;0.50;;;;;;;4.34;65.64;92544.16;5088622;28;20110;-48
2021/04/07 10:29:24;;;;;;;0.52;0.52;;;;;;;4.33;64.53;92553.63;5087746;28;20055;-46
2021/04/07 10:31:54;;;;;;;0.45;0.45;;;;;;;4.49;63.58;92568.91;5089520;28;20664;-48
2021/04/07 10:34:28;;;;;;;0.63;0.63;;;;;;;4.34;63.99;92574.94;5089422;28;20047;-48
2021/04/07 10:36:54;;;;;;;1.58;1.20;;;;;;;4.39;63.20;92585.03;5087352;28;20503;-48
2021/04/07 10:39:20;;;;;;;0.93;0.90;;;;;;;4.33;64.34;92589.16;5085371;28;20016;-49
2021/04/07 10:41:52;;;;;;;0.88;0.88;;;;;;;4.24;64.46;92598.53;5071238;28;20061;-49
2021/04/07 10:44:29;;;;;;;0.80;0.80;;;;;;;4.17;64.53;92590.97;5076719;28;20047;-47
2021/04/07 10:46:55;;;;;;;1.35;0.70;;;;;;;3.95;64.90;92602.34;5085671;28;20030;-47
2021/04/07 10:49:21;;;;;;;0.90;0.90;;;;;;;4.22;65.69;92603.03;5089719;28;20019;-48
2021/04/07 10:52:07;;;;;;;0.93;0.85;;;;;;;4.33;65.54;92589.16;5089361;28;20032;-48
2021/04/07 10:54:34;;;;;;;0.32;0.32;;;;;;;4.48;64.63;92586.59;5087800;28;20036;-48
2021/04/07 10:57:07;;;;;;;0.82;0.82;;;;;;;4.82;64.30;92592.03;5089063;28;20016;-47
2021/04/07 10:59:33;;;;;;;2.28;1.50;;;;;;;4.90;64.51;92596.31;5088189;28;20051;-46
2021/04/07 11:02:11;;;;;;;0.73;0.73;;;;;;;5.02;64.17;92597.53;5068655;28;20044;-48
2021/04/07 11:04:36;;;;;;;0.30;0.30;;;;;;;5.03;64.41;92590.78;5069441;28;20036;-48
2021/04/07 11:07:03;;;;;;;0.63;0.63;;;;;;;4.99;63.14;92586.91;5069369;28;20021;-51
2021/04/07 11:09:33;;;;;;;0.30;0.30;;;;;;;5.06;63.33;92586.25;5080948;28;20082;-46
2021/04/07 11:12:00;;;;;;;1.60;1.50;;;;;;;5.32;63.01;92599.78;5087949;28;20036;-46
2021/04/07 11:14:25;;;;;;;0.30;0.30;;;;;;;5.47;62.21;92591.69;5089387;28;20020;-46
2021/04/07 11:16:58;;;;;;;0.30;0.30;;;;;;;5.52;62.37;92585.34;5089242;28;20107;-47
2021/04/07 11:19:32;;;;;;;0.90;0.85;;;;;;;5.55;62.12;92589.72;5088735;28;20031;-46
2021/04/07 11:21:58;;;;;;;0.35;0.35;;;;;;;5.45;62.89;92582.53;5089031;28;20103;-46
2021/04/07 11:24:23;;;;;;;0.55;0.55;;;;;;;5.98;62.99;92595.34;5085970;28;20046;-47
2021/04/07 11:26:52;;;;;;;0.98;0.98;;;;;;;6.20;61.09;92609.69;5075819;28;20028;-49
2021/04/07 11:29:18;;;;;;;1.58;1.48;;;;;;;5.90;61.89;92608.25;5076307;28;20028;-47
2021/04/07 11:31:43;;;;;;;0.40;0.40;;;;;;;6.50;60.78;92588.63;5074351;28;20523;-48
2021/04/07 11:34:11;;;;;;;0.52;0.52;;;;;;;7.04;59.32;92570.31;5087898;28;20032;-46
2021/04/07 11:39:17;;;;;;;0.60;0.60;;;;;;;7.82;57.20;92604.19;5070465;28;20028;-41
2021/04/07 11:44:28;;;;;;;0.22;0.22;;;;;;;7.64;56.63;92614.97;5070097;28;20059;-47
2021/04/07 11:46:54;;;;;;;0.52;0.52;;;;;;;7.48;55.98;92612.78;5081743;28;20027;-54
2021/04/07 11:49:20;;;;;;;0.63;0.63;;;;;;;7.20;57.41;92616.44;5072776;28;20032;-60
2021/04/07 11:51:45;;;;;;;1.65;1.55;;;;;;;7.35;57.11;92607.47;5079812;28;20032;-47